createdAt,value
2022-12-23T00:00:39.711Z,12.45
2022-12-23T00:03:07.459Z,14.35
2022-12-23T00:05:39.588Z,8.48
2022-12-23T00:08:07.908Z,18.80
2022-12-23T00:10:38.862Z,8.85
2022-12-23T00:13:24.838Z,11.52
2022-12-23T00:15:51.844Z,15.95
2022-12-23T00:18:18.725Z,7.63
2022-12-23T00:20:45.513Z,12.02
2022-12-23T00:23:12.433Z,19.02
2022-12-23T00:25:42.326Z,15.35
2022-12-23T00:28:17.864Z,18.92
2022-12-23T00:30:58.961Z,18.02
2022-12-23T00:33:28.752Z,13.63
2022-12-23T00:35:55.960Z,12.73
2022-12-23T00:38:42.370Z,8.80
2022-12-23T00:41:33.839Z,15.40
2022-12-23T00:44:01.538Z,13.73
2022-12-23T00:46:28.452Z,9.90
2022-12-23T00:49:14.315Z,13.38
2022-12-23T00:51:41.236Z,14.13
2022-12-23T00:54:08.503Z,13.63
2022-12-23T00:56:35.466Z,16.08
2022-12-23T00:59:02.264Z,15.52
2022-12-23T01:01:47.768Z,12.18
2022-12-23T01:04:34.725Z,9.02
2022-12-23T01:07:05.315Z,9.02
2022-12-23T01:09:32.259Z,11.68
2022-12-23T01:11:59.178Z,9.93
2022-12-23T01:14:26.189Z,10.23
2022-12-23T01:16:53.069Z,11.45
2022-12-23T01:19:20.089Z,14.18
2022-12-23T01:21:47.134Z,12.43
2022-12-23T01:24:14.075Z,9.23
2022-12-23T01:26:40.856Z,10.65
2022-12-23T01:29:07.782Z,7.88
2022-12-23T01:31:34.699Z,7.78
2022-12-23T01:34:01.700Z,9.45
2022-12-23T01:36:28.523Z,13.27
2022-12-23T01:38:58.312Z,9.48
2022-12-23T01:41:46.520Z,10.88
2022-12-23T01:44:51.771Z,9.73
2022-12-23T01:47:41.738Z,10.50
2022-12-23T01:50:11.748Z,5.78
2022-12-23T01:53:04.606Z,9.07
2022-12-23T01:55:40.915Z,10.23
2022-12-23T01:58:15.170Z,9.45
2022-12-23T02:01:01.470Z,9.82
2022-12-23T02:03:44.063Z,11.30
2022-12-23T02:06:31.898Z,14.80
2022-12-23T02:09:17.176Z,10.02
2022-12-23T02:12:17.732Z,9.77
2022-12-23T02:15:34.352Z,10.48
2022-12-23T02:18:01.131Z,15.00
2022-12-23T02:20:47.603Z,9.15
2022-12-23T02:23:29.341Z,13.70
2022-12-23T02:26:17.572Z,11.10
2022-12-23T02:29:29.556Z,16.17
2022-12-23T02:32:13.165Z,9.73
2022-12-23T02:34:54.489Z,9.98
2022-12-23T02:37:33.129Z,12.05
2022-12-23T02:40:08.713Z,12.48
2022-12-23T02:42:38.056Z,12.48
2022-12-23T02:45:10.227Z,16.65
2022-12-23T02:47:44.882Z,8.82
2022-12-23T02:50:21.134Z,10.65
2022-12-23T02:52:51.672Z,10.65
2022-12-23T02:55:28.244Z,12.05
2022-12-23T02:57:57.946Z,11.07
2022-12-23T03:00:24.713Z,11.50
2022-12-23T03:02:51.791Z,10.77
2022-12-23T03:05:41.661Z,11.88
2022-12-23T03:08:16.084Z,7.75
2022-12-23T03:11:01.533Z,11.15
2022-12-23T03:13:35.076Z,8.85
2022-12-23T03:16:11.124Z,8.88
2022-12-23T03:18:59.850Z,6.63
2022-12-23T03:22:07.202Z,11.35
2022-12-23T03:25:11.358Z,12.90
2022-12-23T03:27:46.293Z,9.40
2022-12-23T03:30:19.841Z,9.25
2022-12-23T03:32:57.240Z,15.18
2022-12-23T03:35:30.135Z,7.65
2022-12-23T03:37:59.798Z,10.00
2022-12-23T03:40:32.710Z,9.77
2022-12-23T03:43:07.427Z,10.75
2022-12-23T03:45:41.554Z,15.25
2022-12-23T03:48:19.651Z,9.20
2022-12-23T03:50:49.816Z,7.20
2022-12-23T03:53:22.702Z,8.02
2022-12-23T03:55:59.461Z,11.68
2022-12-23T03:58:33.555Z,8.98
2022-12-23T04:01:12.219Z,11.98
2022-12-23T04:04:07.035Z,7.18
2022-12-23T04:06:41.878Z,6.78
2022-12-23T04:09:09.215Z,8.73
2022-12-23T04:11:37.053Z,7.50
2022-12-23T04:14:03.934Z,5.68
2022-12-23T04:16:31.051Z,10.57
2022-12-23T04:18:57.922Z,8.75
2022-12-23T04:21:24.697Z,11.02
2022-12-23T04:23:51.500Z,7.10
2022-12-23T04:26:18.235Z,5.43
2022-12-23T04:28:45.036Z,5.30
2022-12-23T04:31:11.877Z,5.68
2022-12-23T04:33:38.917Z,6.13
2022-12-23T04:36:05.981Z,8.75
2022-12-23T04:38:32.822Z,7.85
2022-12-23T04:40:59.619Z,5.70
2022-12-23T04:43:26.433Z,4.93
2022-12-23T04:45:53.462Z,8.48
2022-12-23T04:48:20.395Z,10.23
2022-12-23T04:50:47.287Z,5.57
2022-12-23T04:53:14.036Z,5.43
2022-12-23T04:55:40.761Z,5.28
2022-12-23T04:58:07.597Z,4.28
2022-12-23T05:00:39.431Z,4.32
2022-12-23T05:03:07.290Z,5.22
2022-12-23T05:05:34.231Z,4.05
2022-12-23T05:08:06.431Z,7.20
2022-12-23T05:10:33.241Z,11.05
2022-12-23T05:13:00.038Z,7.95
2022-12-23T05:15:26.916Z,5.30
2022-12-23T05:17:53.771Z,8.25
2022-12-23T05:20:20.619Z,5.38
2022-12-23T05:22:47.453Z,6.95
2022-12-23T05:25:14.372Z,8.20
2022-12-23T05:27:41.201Z,8.15
2022-12-23T05:30:12.548Z,7.60
2022-12-23T05:32:39.401Z,8.02
2022-12-23T05:35:06.735Z,8.40
2022-12-23T05:37:34.230Z,9.38
2022-12-23T05:40:01.075Z,12.43
2022-12-23T05:42:27.952Z,9.55
2022-12-23T05:44:54.724Z,6.78
2022-12-23T05:47:21.480Z,5.65
2022-12-23T05:49:48.258Z,12.90
2022-12-23T05:52:15.192Z,16.05
2022-12-23T05:54:41.938Z,15.32
2022-12-23T05:57:09.042Z,10.80
2022-12-23T05:59:35.929Z,14.48
2022-12-23T06:02:02.883Z,6.90
2022-12-23T06:04:29.843Z,9.27
2022-12-23T06:06:56.843Z,7.82
2022-12-23T06:09:23.683Z,5.88
2022-12-23T06:11:50.585Z,8.35
2022-12-23T06:14:17.423Z,10.40
2022-12-23T06:16:44.453Z,5.95
2022-12-23T06:19:11.373Z,6.90
2022-12-23T06:21:38.261Z,7.93
2022-12-23T06:24:05.517Z,10.77
2022-12-23T06:26:33.688Z,5.57
2022-12-23T06:29:00.478Z,7.88
2022-12-23T06:31:27.386Z,4.20
2022-12-23T06:33:54.219Z,9.00
2022-12-23T06:36:21.007Z,6.85
2022-12-23T06:38:47.853Z,6.82
2022-12-23T06:41:14.737Z,10.27
2022-12-23T06:43:41.743Z,9.75
2022-12-23T06:46:08.635Z,10.13
2022-12-23T06:48:35.548Z,8.52
2022-12-23T06:51:02.437Z,7.50
2022-12-23T06:53:29.188Z,7.38
2022-12-23T06:56:02.813Z,9.10
2022-12-23T06:58:30.101Z,11.20
2022-12-23T07:00:56.985Z,8.98
2022-12-23T07:03:23.989Z,6.25
2022-12-23T07:05:51.162Z,8.68
2022-12-23T07:08:19.079Z,5.38
2022-12-23T07:10:45.917Z,9.27
2022-12-23T07:13:12.814Z,8.10
2022-12-23T07:15:39.789Z,9.00
2022-12-23T07:18:07.034Z,9.85
2022-12-23T07:20:33.801Z,9.05
2022-12-23T07:23:01.009Z,14.20
2022-12-23T07:25:28.040Z,6.53
2022-12-23T07:27:55.421Z,7.80
2022-12-23T07:30:23.351Z,13.15
2022-12-23T07:32:51.471Z,7.93
2022-12-23T07:35:18.751Z,11.40
2022-12-23T07:37:45.846Z,9.05
2022-12-23T07:40:12.927Z,10.75
2022-12-23T07:42:47.228Z,9.48
2022-12-23T07:45:14.450Z,10.27
2022-12-23T07:47:41.685Z,10.40
2022-12-23T07:50:08.954Z,12.55
2022-12-23T07:52:38.345Z,12.73
2022-12-23T07:55:06.500Z,9.43
2022-12-23T07:57:38.020Z,12.02
2022-12-23T08:00:09.559Z,9.20
2022-12-23T08:02:39.806Z,10.85
2022-12-23T08:05:07.780Z,14.80
2022-12-23T08:07:34.927Z,9.50
2022-12-23T08:10:04.760Z,8.35
2022-12-23T08:12:31.703Z,7.80
2022-12-23T08:14:58.940Z,11.65
2022-12-23T08:17:30.377Z,6.63
2022-12-23T08:19:57.398Z,11.02
2022-12-23T08:22:24.654Z,11.23
2022-12-23T08:24:52.797Z,11.27
2022-12-23T08:27:19.698Z,8.20
2022-12-23T08:29:48.758Z,8.20
2022-12-23T08:32:15.536Z,9.40
2022-12-23T08:34:44.858Z,8.30
2022-12-23T08:37:11.636Z,7.53
2022-12-23T08:39:38.520Z,13.57
2022-12-23T08:42:05.397Z,11.60
2022-12-23T08:44:32.696Z,11.00
2022-12-23T08:46:59.796Z,7.60
2022-12-23T08:49:28.936Z,10.13
2022-12-23T08:51:57.865Z,8.75
2022-12-23T08:54:29.558Z,6.55
2022-12-23T08:56:56.371Z,5.65
2022-12-23T08:59:23.240Z,8.65
2022-12-23T09:01:50.325Z,11.00
2022-12-23T09:04:17.446Z,7.57
2022-12-23T09:06:45.459Z,7.80
2022-12-23T09:09:15.700Z,8.25
2022-12-23T09:11:43.091Z,9.38
2022-12-23T09:14:11.132Z,10.32
2022-12-23T09:16:38.334Z,5.65
2022-12-23T09:19:05.169Z,9.70
2022-12-23T09:21:32.104Z,8.43
2022-12-23T09:23:59.035Z,5.13
2022-12-23T09:26:29.250Z,7.50
2022-12-23T09:28:56.955Z,11.75
2022-12-23T09:31:27.968Z,8.98
2022-12-23T09:33:59.365Z,18.63
2022-12-23T09:36:26.127Z,15.38
2022-12-23T09:38:57.609Z,15.30
2022-12-23T09:41:31.630Z,12.63
2022-12-23T09:44:35.700Z,11.77
2022-12-23T09:47:05.936Z,11.98
2022-12-23T09:49:33.911Z,13.13
2022-12-23T09:52:05.453Z,10.45
2022-12-23T09:54:53.703Z,13.32
2022-12-23T09:57:32.515Z,12.73
2022-12-23T10:00:08.039Z,11.30
2022-12-23T10:03:11.814Z,9.75
2022-12-23T10:05:57.019Z,9.95
2022-12-23T10:08:44.509Z,11.05
2022-12-23T10:11:21.920Z,10.85
2022-12-23T10:13:53.069Z,10.32
2022-12-23T10:16:26.492Z,11.80
2022-12-23T10:19:07.019Z,12.25
2022-12-23T10:21:48.811Z,8.65
2022-12-23T10:24:28.347Z,10.45
2022-12-23T10:26:56.570Z,9.10
2022-12-23T10:29:25.691Z,9.98
2022-12-23T10:32:11.762Z,8.05
2022-12-23T10:35:07.977Z,10.02
2022-12-23T10:37:46.689Z,7.88
2022-12-23T10:40:31.838Z,8.40
2022-12-23T10:43:35.055Z,5.13
2022-12-23T10:46:35.800Z,11.18
2022-12-23T10:49:27.151Z,9.48
2022-12-23T10:52:00.658Z,11.13
2022-12-23T10:54:35.374Z,10.43
2022-12-23T10:57:03.603Z,7.50
2022-12-23T10:59:35.691Z,10.77
2022-12-23T11:02:25.793Z,7.40
2022-12-23T11:04:52.718Z,12.90
2022-12-23T11:07:43.918Z,8.18
2022-12-23T11:10:20.926Z,8.52
2022-12-23T11:12:51.945Z,10.00
2022-12-23T11:15:39.667Z,11.93
2022-12-23T11:18:12.361Z,8.52
2022-12-23T11:20:42.176Z,10.55
2022-12-23T11:23:36.717Z,10.50
2022-12-23T11:26:09.974Z,7.72
2022-12-23T11:28:40.142Z,8.00
2022-12-23T11:31:14.539Z,7.47
2022-12-23T11:33:49.017Z,7.63
2022-12-23T11:36:24.107Z,8.23
2022-12-23T11:38:53.674Z,7.53
2022-12-23T11:41:27.904Z,10.82
2022-12-23T11:44:05.217Z,8.98
2022-12-23T11:46:34.636Z,10.68
2022-12-23T11:49:28.840Z,12.07
2022-12-23T11:52:07.768Z,7.18
2022-12-23T11:54:34.915Z,8.57
2022-12-23T11:57:10.575Z,11.90
2022-12-23T11:59:42.274Z,9.52
2022-12-23T12:02:44.923Z,8.30
2022-12-23T12:05:28.997Z,13.40
2022-12-23T12:08:01.353Z,10.02
2022-12-23T12:10:31.612Z,10.27
2022-12-23T12:13:02.904Z,9.75
2022-12-23T12:15:55.636Z,8.05
2022-12-23T12:18:28.266Z,11.32
2022-12-23T12:21:07.070Z,9.05
2022-12-23T12:23:43.071Z,9.23
2022-12-23T12:26:16.181Z,10.25
2022-12-23T12:28:51.464Z,10.60
2022-12-23T12:31:28.297Z,5.88
2022-12-23T12:34:16.102Z,9.40
2022-12-23T12:36:58.259Z,6.93
2022-12-23T12:39:31.471Z,10.77
2022-12-23T12:42:09.130Z,12.48
2022-12-23T12:44:51.194Z,14.30
2022-12-23T12:47:53.229Z,9.57
2022-12-23T12:50:33.383Z,10.95
2022-12-23T12:53:12.797Z,13.95
2022-12-23T12:55:46.268Z,56.03
2022-12-23T12:58:20.431Z,134.73
2022-12-23T13:01:28.099Z,23.98
2022-12-23T13:04:00.877Z,10.30
2022-12-23T13:06:52.662Z,17.65
2022-12-23T13:09:42.394Z,19.17
2022-12-23T13:12:27.827Z,15.20
2022-12-23T13:15:44.444Z,13.40
2022-12-23T13:18:26.393Z,15.57
2022-12-23T13:21:13.377Z,16.10
2022-12-23T13:24:03.637Z,12.75
2022-12-23T13:26:39.099Z,17.42
2022-12-23T13:29:40.758Z,14.40
2022-12-23T13:32:55.374Z,12.43
2022-12-23T13:35:38.995Z,7.18
2022-12-23T13:38:27.061Z,8.65
2022-12-23T13:41:02.715Z,6.82
2022-12-23T13:43:40.807Z,7.15
2022-12-23T13:46:24.609Z,8.77
2022-12-23T13:48:54.185Z,9.40
2022-12-23T13:51:26.585Z,9.23
2022-12-23T13:54:05.576Z,12.15
2022-12-23T13:56:52.962Z,6.47
2022-12-23T13:59:19.799Z,5.60
2022-12-23T14:01:48.650Z,7.45
2022-12-23T14:04:29.449Z,12.57
2022-12-23T14:06:59.056Z,6.57
2022-12-23T14:09:36.132Z,7.13
2022-12-23T14:12:19.993Z,6.55
2022-12-23T14:15:19.248Z,13.02
2022-12-23T14:18:26.472Z,11.23
2022-12-23T14:21:14.897Z,12.82
2022-12-23T14:24:19.126Z,12.57
2022-12-23T14:27:04.442Z,13.93
2022-12-23T14:30:11.386Z,10.45
2022-12-23T14:33:00.552Z,10.20
2022-12-23T14:35:36.960Z,10.77
2022-12-23T14:38:14.755Z,10.23
2022-12-23T14:41:13.034Z,22.15
2022-12-23T14:43:46.033Z,26.48
2022-12-23T14:46:39.367Z,15.82
2022-12-23T14:49:40.485Z,9.98
2022-12-23T14:52:48.375Z,11.93
2022-12-23T14:55:32.790Z,9.25
2022-12-23T14:58:05.713Z,17.73
2022-12-23T15:00:46.371Z,13.60
2022-12-23T15:03:16.252Z,15.10
2022-12-23T15:05:43.288Z,15.38
2022-12-23T15:08:30.926Z,17.85
2022-12-23T15:10:58.956Z,23.30
2022-12-23T15:13:28.721Z,23.10
2022-12-23T15:16:01.381Z,23.90
2022-12-23T15:18:29.224Z,25.30
2022-12-23T15:21:11.211Z,24.67
2022-12-23T15:23:38.113Z,17.77
2022-12-23T15:26:05.148Z,27.75
2022-12-23T15:28:38.481Z,35.33
2022-12-23T15:31:06.849Z,20.73
2022-12-23T15:34:02.361Z,25.98
2022-12-23T15:36:30.693Z,12.70
2022-12-23T15:38:59.815Z,16.55
2022-12-23T15:41:26.711Z,42.03
2022-12-23T15:43:58.321Z,20.95
2022-12-23T15:46:30.177Z,22.23
2022-12-23T15:48:58.425Z,23.23
2022-12-23T15:52:07.049Z,26.10
2022-12-23T15:54:26.560Z,26.58
2022-12-23T15:56:54.717Z,23.02
2022-12-23T15:59:25.486Z,24.17
2022-12-23T16:01:53.057Z,14.23
2022-12-23T16:04:28.583Z,10.70
2022-12-23T16:06:56.345Z,10.98
2022-12-23T16:09:31.267Z,13.77
2022-12-23T16:12:18.496Z,12.77
2022-12-23T16:14:54.445Z,11.00
2022-12-23T16:17:32.036Z,13.27
2022-12-23T16:20:20.903Z,16.50
2022-12-23T16:22:50.931Z,14.50
2022-12-23T16:25:23.197Z,11.85
2022-12-23T16:28:04.604Z,14.50
2022-12-23T16:30:37.326Z,12.77
2022-12-23T16:33:24.715Z,17.95
2022-12-23T16:35:54.515Z,13.85
2022-12-23T16:38:26.251Z,22.05
2022-12-23T16:40:57.069Z,17.00
2022-12-23T16:45:56.749Z,30.17
2022-12-23T16:48:34.579Z,19.92
2022-12-23T16:51:04.158Z,13.30
2022-12-23T16:53:31.553Z,13.27
2022-12-23T16:56:00.903Z,15.05
2022-12-23T16:58:29.319Z,13.40
2022-12-23T17:00:56.593Z,15.68
2022-12-23T17:03:23.536Z,11.90
2022-12-23T17:05:50.325Z,10.68
2022-12-23T17:08:17.296Z,13.55
2022-12-23T17:10:44.934Z,15.05
2022-12-23T17:13:14.217Z,15.80
2022-12-23T17:15:41.082Z,18.17
2022-12-23T17:18:16.975Z,16.73
2022-12-23T17:20:46.330Z,13.93
2022-12-23T17:23:31.193Z,18.58
2022-12-23T17:26:00.540Z,13.10
2022-12-23T17:28:30.975Z,16.02
2022-12-23T17:30:58.797Z,19.75
2022-12-23T17:33:30.068Z,20.92
2022-12-23T17:35:57.294Z,20.52
2022-12-23T17:38:24.494Z,25.67
2022-12-23T17:40:51.634Z,26.92
2022-12-23T17:43:18.754Z,27.70
2022-12-23T17:45:47.094Z,23.10
2022-12-23T17:48:20.164Z,29.27
2022-12-23T17:50:49.224Z,18.65
2022-12-23T17:53:18.857Z,20.98
2022-12-23T17:55:46.200Z,25.67
2022-12-23T17:58:14.273Z,22.20
2022-12-23T18:00:41.618Z,30.33
2022-12-23T18:03:22.775Z,39.95
2022-12-23T18:05:51.903Z,26.15
2022-12-23T18:08:21.184Z,32.35
2022-12-23T18:10:56.080Z,38.45
2022-12-23T18:13:23.102Z,35.42
2022-12-23T18:15:50.264Z,37.03
2022-12-23T18:18:26.427Z,45.60
2022-12-23T18:20:58.645Z,39.30
2022-12-23T18:23:31.252Z,43.22
2022-12-23T18:26:01.782Z,38.55
2022-12-23T18:28:28.606Z,34.03
2022-12-23T18:30:57.037Z,32.53
2022-12-23T18:33:28.610Z,44.45
2022-12-23T18:35:56.060Z,40.75
2022-12-23T18:38:23.109Z,37.22
2022-12-23T18:40:54.046Z,36.88
2022-12-23T18:43:23.780Z,32.05
2022-12-23T18:45:53.628Z,30.88
2022-12-23T18:48:21.869Z,33.88
2022-12-23T18:50:48.820Z,27.42
2022-12-23T18:53:24.759Z,26.83
2022-12-23T18:55:53.555Z,32.50
2022-12-23T18:58:21.434Z,39.67
2022-12-23T19:00:50.072Z,36.88
2022-12-23T19:03:30.372Z,35.65
2022-12-23T19:05:58.754Z,58.10
2022-12-23T19:08:27.878Z,67.63
2022-12-23T19:10:56.064Z,60.92
2022-12-23T19:13:23.759Z,54.03
2022-12-23T19:15:50.946Z,48.83
2022-12-23T19:18:20.100Z,43.88
2022-12-23T19:20:47.998Z,39.35
2022-12-23T19:23:15.810Z,37.55
2022-12-23T19:25:49.151Z,39.00
2022-12-23T19:28:22.045Z,32.85
2022-12-23T19:30:51.071Z,42.03
2022-12-23T19:33:18.178Z,34.25
2022-12-23T19:35:45.107Z,36.15
2022-12-23T19:38:12.629Z,37.53
2022-12-23T19:40:40.102Z,54.25
2022-12-23T19:43:07.433Z,46.05
2022-12-23T19:45:34.250Z,43.53
2022-12-23T19:48:01.572Z,40.67
2022-12-23T19:50:29.919Z,39.83
2022-12-23T19:52:57.583Z,36.97
2022-12-23T19:55:24.414Z,37.35
2022-12-23T19:57:52.282Z,42.83
2022-12-23T20:00:19.403Z,36.30
2022-12-23T20:02:46.477Z,37.58
2022-12-23T20:05:13.516Z,41.67
2022-12-23T20:07:40.725Z,39.53
2022-12-23T20:10:08.146Z,41.63
2022-12-23T20:12:35.084Z,37.70
2022-12-23T20:15:02.204Z,27.27
2022-12-23T20:17:29.116Z,34.30
2022-12-23T20:19:56.043Z,33.50
2022-12-23T20:22:22.997Z,33.30
2022-12-23T20:24:49.987Z,33.53
2022-12-23T20:27:19.129Z,32.38
2022-12-23T20:29:49.998Z,31.08
2022-12-23T20:32:17.025Z,36.78
2022-12-23T20:34:44.405Z,31.52
2022-12-23T20:37:11.895Z,36.25
2022-12-23T20:39:38.760Z,31.38
2022-12-23T20:42:05.770Z,38.03
2022-12-23T20:44:35.219Z,59.47
2022-12-23T20:47:03.979Z,46.80
2022-12-23T20:49:31.334Z,48.08
2022-12-23T20:51:58.214Z,41.47
2022-12-23T20:54:32.197Z,34.33
2022-12-23T20:57:01.593Z,36.70
2022-12-23T20:59:28.589Z,28.33
2022-12-23T21:01:55.810Z,24.70
2022-12-23T21:04:22.907Z,21.60
2022-12-23T21:06:50.002Z,22.63
2022-12-23T21:09:17.150Z,26.67
2022-12-23T21:11:46.191Z,22.65
2022-12-23T21:14:14.638Z,32.55
2022-12-23T21:16:42.392Z,33.65
2022-12-23T21:19:16.631Z,24.95
2022-12-23T21:21:43.616Z,34.55
2022-12-23T21:24:11.435Z,28.83
2022-12-23T21:26:38.621Z,33.25
2022-12-23T21:29:07.986Z,29.02
2022-12-23T21:31:37.874Z,28.83
2022-12-23T21:34:05.790Z,30.63
2022-12-23T21:36:36.437Z,28.65
2022-12-23T21:39:05.642Z,29.20
2022-12-23T21:41:36.657Z,27.25
2022-12-23T21:44:04.571Z,26.98
2022-12-23T21:46:31.877Z,29.35
2022-12-23T21:48:59.994Z,24.98
2022-12-23T21:51:36.930Z,20.27
2022-12-23T21:54:07.874Z,20.85
2022-12-23T21:56:35.140Z,21.98
2022-12-23T21:59:05.283Z,21.05
2022-12-23T22:01:32.865Z,20.33
2022-12-23T22:03:59.882Z,22.00
2022-12-23T22:06:33.209Z,20.67
2022-12-23T22:09:00.187Z,16.77
2022-12-23T22:11:29.843Z,24.52
2022-12-23T22:13:58.169Z,20.63
2022-12-23T22:16:26.714Z,21.08
2022-12-23T22:18:54.763Z,20.60
2022-12-23T22:21:23.548Z,20.38
2022-12-23T22:23:52.002Z,14.18
2022-12-23T22:26:25.502Z,16.90
2022-12-23T22:28:55.402Z,18.23
2022-12-23T22:31:43.763Z,13.68
2022-12-23T22:34:15.372Z,13.10
2022-12-23T22:36:42.572Z,11.00
2022-12-23T22:39:19.357Z,10.00
2022-12-23T22:41:48.784Z,11.73
2022-12-23T22:44:16.439Z,13.77
2022-12-23T22:46:43.403Z,11.13
2022-12-23T22:49:13.135Z,9.65
2022-12-23T22:51:41.299Z,14.00
2022-12-23T22:54:09.597Z,13.90
2022-12-23T22:56:36.647Z,10.32
2022-12-23T22:59:04.841Z,15.32
2022-12-23T23:01:35.599Z,10.48
2022-12-23T23:04:04.006Z,16.63
2022-12-23T23:06:34.085Z,11.73
2022-12-23T23:09:01.506Z,15.75
2022-12-23T23:11:29.067Z,11.88
2022-12-23T23:13:56.631Z,17.52
2022-12-23T23:16:25.178Z,15.40
2022-12-23T23:18:53.091Z,12.23
2022-12-23T23:21:20.444Z,12.35
2022-12-23T23:23:47.735Z,16.35
2022-12-23T23:26:14.904Z,11.65
2022-12-23T23:28:42.943Z,12.20
2022-12-23T23:31:40.434Z,14.88
2022-12-23T23:33:57.917Z,15.07
2022-12-23T23:36:25.446Z,11.35
2022-12-23T23:38:52.439Z,9.20
2022-12-23T23:41:23.328Z,10.38
2022-12-23T23:43:51.534Z,5.15
2022-12-23T23:46:18.587Z,10.02
2022-12-23T23:48:45.526Z,5.57
2022-12-23T23:51:12.904Z,9.52
2022-12-23T23:53:40.685Z,8.48
2022-12-23T23:56:08.697Z,10.48
2022-12-23T23:58:36.841Z,7.50
